sensor_id;sensor_type;location;lat;lon;timestamp;P1;durP1;ratioP1;P2;durP2;ratioP2
41077;SDS011;26823;42.662;23.352;2022-11-14T00:00:33;27.10;;;14.43;;
41077;SDS011;26823;42.662;23.352;2022-11-14T00:03:05;32.65;;;15.55;;
41077;SDS011;26823;42.662;23.352;2022-11-14T00:05:32;26.67;;;14.27;;
41077;SDS011;26823;42.662;23.352;2022-11-14T00:08:02;28.38;;;13.32;;
41077;SDS011;26823;42.662;23.352;2022-11-14T00:10:27;40.72;;;16.25;;
41077;SDS011;26823;42.662;23.352;2022-11-14T00:12:52;26.35;;;14.15;;
41077;SDS011;26823;42.662;23.352;2022-11-14T00:15:18;29.10;;;14.25;;
41077;SDS011;26823;42.662;23.352;2022-11-14T00:17:43;27.42;;;14.77;;
41077;SDS011;26823;42.662;23.352;2022-11-14T00:20:09;27.30;;;14.70;;
41077;SDS011;26823;42.662;23.352;2022-11-14T00:22:36;28.67;;;15.95;;
41077;SDS011;26823;42.662;23.352;2022-11-14T00:25:01;32.58;;;15.27;;
41077;SDS011;26823;42.662;23.352;2022-11-14T00:27:27;36.80;;;16.75;;
41077;SDS011;26823;42.662;23.352;2022-11-14T00:29:53;36.72;;;16.13;;
41077;SDS011;26823;42.662;23.352;2022-11-14T00:32:18;30.00;;;17.00;;
41077;SDS011;26823;42.662;23.352;2022-11-14T00:34:44;32.13;;;15.63;;
41077;SDS011;26823;42.662;23.352;2022-11-14T00:37:09;31.75;;;16.30;;
41077;SDS011;26823;42.662;23.352;2022-11-14T00:39:35;37.03;;;15.88;;
41077;SDS011;26823;42.662;23.352;2022-11-14T00:42:00;30.15;;;14.75;;
41077;SDS011;26823;42.662;23.352;2022-11-14T00:44:25;23.35;;;14.10;;
41077;SDS011;26823;42.662;23.352;2022-11-14T00:46:51;27.25;;;14.77;;
41077;SDS011;26823;42.662;23.352;2022-11-14T00:49:16;36.38;;;17.83;;
41077;SDS011;26823;42.662;23.352;2022-11-14T00:51:42;29.23;;;14.45;;
41077;SDS011;26823;42.662;23.352;2022-11-14T00:54:07;31.30;;;15.52;;
41077;SDS011;26823;42.662;23.352;2022-11-14T00:56:32;27.98;;;14.88;;
41077;SDS011;26823;42.662;23.352;2022-11-14T00:58:58;30.42;;;15.07;;
41077;SDS011;26823;42.662;23.352;2022-11-14T01:01:23;34.80;;;14.27;;
41077;SDS011;26823;42.662;23.352;2022-11-14T01:03:49;31.58;;;16.30;;
41077;SDS011;26823;42.662;23.352;2022-11-14T01:06:15;27.65;;;16.13;;
41077;SDS011;26823;42.662;23.352;2022-11-14T01:08:42;30.90;;;15.57;;
41077;SDS011;26823;42.662;23.352;2022-11-14T01:11:13;28.92;;;16.20;;
41077;SDS011;26823;42.662;23.352;2022-11-14T01:13:41;24.23;;;14.17;;
41077;SDS011;26823;42.662;23.352;2022-11-14T01:16:07;22.83;;;12.05;;
41077;SDS011;26823;42.662;23.352;2022-11-14T01:18:33;23.10;;;11.45;;
41077;SDS011;26823;42.662;23.352;2022-11-14T01:21:02;19.75;;;10.73;;
41077;SDS011;26823;42.662;23.352;2022-11-14T01:23:29;28.45;;;13.52;;
41077;SDS011;26823;42.662;23.352;2022-11-14T01:25:55;20.65;;;11.98;;
41077;SDS011;26823;42.662;23.352;2022-11-14T01:28:26;22.02;;;10.90;;
41077;SDS011;26823;42.662;23.352;2022-11-14T01:31:11;18.52;;;11.82;;
41077;SDS011;26823;42.662;23.352;2022-11-14T01:33:39;22.35;;;11.18;;
41077;SDS011;26823;42.662;23.352;2022-11-14T01:36:05;17.70;;;11.27;;
41077;SDS011;26823;42.662;23.352;2022-11-14T01:38:31;25.00;;;10.70;;
41077;SDS011;26823;42.662;23.352;2022-11-14T01:40:56;18.90;;;11.13;;
41077;SDS011;26823;42.662;23.352;2022-11-14T01:43:26;23.77;;;11.65;;
41077;SDS011;26823;42.662;23.352;2022-11-14T01:46:28;25.42;;;12.25;;
41077;SDS011;26823;42.662;23.352;2022-11-14T01:51:32;28.95;;;14.20;;
41077;SDS011;26823;42.662;23.352;2022-11-14T01:54:04;34.97;;;16.33;;
41077;SDS011;26823;42.662;23.352;2022-11-14T01:56:37;27.30;;;15.07;;
41077;SDS011;26823;42.662;23.352;2022-11-14T01:59:07;32.88;;;15.23;;
41077;SDS011;26823;42.662;23.352;2022-11-14T02:01:37;33.33;;;14.70;;
41077;SDS011;26823;42.662;23.352;2022-11-14T02:04:09;25.58;;;14.25;;
41077;SDS011;26823;42.662;23.352;2022-11-14T02:06:41;29.77;;;14.32;;
41077;SDS011;26823;42.662;23.352;2022-11-14T02:09:08;23.88;;;13.13;;
41077;SDS011;26823;42.662;23.352;2022-11-14T02:11:35;24.85;;;13.80;;
41077;SDS011;26823;42.662;23.352;2022-11-14T02:14:04;24.40;;;14.23;;
41077;SDS011;26823;42.662;23.352;2022-11-14T02:16:30;21.10;;;12.27;;
41077;SDS011;26823;42.662;23.352;2022-11-14T02:18:56;26.67;;;14.52;;
41077;SDS011;26823;42.662;23.352;2022-11-14T02:21:21;25.15;;;13.48;;
41077;SDS011;26823;42.662;23.352;2022-11-14T02:23:47;29.23;;;14.10;;
41077;SDS011;26823;42.662;23.352;2022-11-14T02:26:15;32.65;;;15.05;;
41077;SDS011;26823;42.662;23.352;2022-11-14T02:28:42;23.27;;;12.57;;
41077;SDS011;26823;42.662;23.352;2022-11-14T02:31:08;27.27;;;13.05;;
41077;SDS011;26823;42.662;23.352;2022-11-14T02:33:33;24.00;;;11.52;;
41077;SDS011;26823;42.662;23.352;2022-11-14T02:35:59;26.35;;;12.48;;
41077;SDS011;26823;42.662;23.352;2022-11-14T02:38:24;25.13;;;11.15;;
41077;SDS011;26823;42.662;23.352;2022-11-14T02:40:49;16.83;;;11.43;;
41077;SDS011;26823;42.662;23.352;2022-11-14T02:43:15;24.38;;;10.63;;
41077;SDS011;26823;42.662;23.352;2022-11-14T02:45:40;21.50;;;10.88;;
41077;SDS011;26823;42.662;23.352;2022-11-14T02:48:06;21.73;;;10.60;;
41077;SDS011;26823;42.662;23.352;2022-11-14T02:50:31;16.38;;;9.88;;
41077;SDS011;26823;42.662;23.352;2022-11-14T02:52:57;19.15;;;10.77;;
41077;SDS011;26823;42.662;23.352;2022-11-14T02:55:22;20.27;;;10.88;;
41077;SDS011;26823;42.662;23.352;2022-11-14T02:57:47;25.40;;;10.80;;
41077;SDS011;26823;42.662;23.352;2022-11-14T03:00:13;14.20;;;8.85;;
41077;SDS011;26823;42.662;23.352;2022-11-14T03:02:39;21.48;;;11.32;;
41077;SDS011;26823;42.662;23.352;2022-11-14T03:05:04;19.40;;;9.60;;
41077;SDS011;26823;42.662;23.352;2022-11-14T03:07:30;23.33;;;10.98;;
41077;SDS011;26823;42.662;23.352;2022-11-14T03:09:55;21.52;;;11.95;;
41077;SDS011;26823;42.662;23.352;2022-11-14T03:12:20;24.60;;;11.52;;
41077;SDS011;26823;42.662;23.352;2022-11-14T03:14:46;22.15;;;12.55;;
41077;SDS011;26823;42.662;23.352;2022-11-14T03:17:11;30.38;;;14.93;;
41077;SDS011;26823;42.662;23.352;2022-11-14T03:19:37;32.45;;;15.10;;
41077;SDS011;26823;42.662;23.352;2022-11-14T03:22:02;26.38;;;15.32;;
41077;SDS011;26823;42.662;23.352;2022-11-14T03:24:28;32.22;;;16.17;;
41077;SDS011;26823;42.662;23.352;2022-11-14T03:26:53;32.22;;;15.02;;
41077;SDS011;26823;42.662;23.352;2022-11-14T03:29:19;35.45;;;13.55;;
41077;SDS011;26823;42.662;23.352;2022-11-14T03:31:44;25.70;;;14.13;;
41077;SDS011;26823;42.662;23.352;2022-11-14T03:34:10;27.15;;;16.38;;
41077;SDS011;26823;42.662;23.352;2022-11-14T03:36:36;30.75;;;15.65;;
41077;SDS011;26823;42.662;23.352;2022-11-14T03:39:02;32.33;;;15.07;;
41077;SDS011;26823;42.662;23.352;2022-11-14T03:41:28;32.78;;;15.13;;
41077;SDS011;26823;42.662;23.352;2022-11-14T03:43:53;25.63;;;12.80;;
41077;SDS011;26823;42.662;23.352;2022-11-14T03:46:19;28.38;;;13.70;;
41077;SDS011;26823;42.662;23.352;2022-11-14T03:48:44;30.77;;;12.75;;
41077;SDS011;26823;42.662;23.352;2022-11-14T03:51:10;28.83;;;12.40;;
41077;SDS011;26823;42.662;23.352;2022-11-14T03:53:35;25.25;;;13.85;;
41077;SDS011;26823;42.662;23.352;2022-11-14T03:56:00;21.63;;;12.52;;
41077;SDS011;26823;42.662;23.352;2022-11-14T03:58:26;25.92;;;12.68;;
41077;SDS011;26823;42.662;23.352;2022-11-14T04:00:51;28.83;;;13.05;;
41077;SDS011;26823;42.662;23.352;2022-11-14T04:03:19;22.83;;;11.05;;
41077;SDS011;26823;42.662;23.352;2022-11-14T04:05:45;27.75;;;12.38;;
41077;SDS011;26823;42.662;23.352;2022-11-14T04:08:10;19.20;;;11.30;;
41077;SDS011;26823;42.662;23.352;2022-11-14T04:10:47;22.38;;;11.43;;
41077;SDS011;26823;42.662;23.352;2022-11-14T04:13:27;25.42;;;12.18;;
41077;SDS011;26823;42.662;23.352;2022-11-14T04:15:55;23.40;;;13.10;;
41077;SDS011;26823;42.662;23.352;2022-11-14T04:18:22;24.15;;;12.27;;
41077;SDS011;26823;42.662;23.352;2022-11-14T04:20:48;25.90;;;13.23;;
41077;SDS011;26823;42.662;23.352;2022-11-14T04:23:14;24.20;;;12.40;;
41077;SDS011;26823;42.662;23.352;2022-11-14T04:25:39;30.58;;;12.65;;
41077;SDS011;26823;42.662;23.352;2022-11-14T04:28:06;21.30;;;11.77;;
41077;SDS011;26823;42.662;23.352;2022-11-14T04:30:32;22.98;;;10.63;;
41077;SDS011;26823;42.662;23.352;2022-11-14T04:32:57;27.08;;;12.95;;
41077;SDS011;26823;42.662;23.352;2022-11-14T04:35:22;27.30;;;12.20;;
41077;SDS011;26823;42.662;23.352;2022-11-14T04:37:48;27.88;;;13.73;;
41077;SDS011;26823;42.662;23.352;2022-11-14T04:40:20;21.70;;;11.30;;
41077;SDS011;26823;42.662;23.352;2022-11-14T04:42:45;24.60;;;12.55;;
41077;SDS011;26823;42.662;23.352;2022-11-14T04:45:12;24.13;;;11.50;;
41077;SDS011;26823;42.662;23.352;2022-11-14T04:47:37;22.33;;;12.52;;
41077;SDS011;26823;42.662;23.352;2022-11-14T04:50:02;25.15;;;12.93;;
41077;SDS011;26823;42.662;23.352;2022-11-14T04:52:28;26.90;;;13.85;;
41077;SDS011;26823;42.662;23.352;2022-11-14T04:54:54;26.58;;;13.18;;
41077;SDS011;26823;42.662;23.352;2022-11-14T04:57:19;23.33;;;13.40;;
41077;SDS011;26823;42.662;23.352;2022-11-14T04:59:45;25.67;;;14.38;;
41077;SDS011;26823;42.662;23.352;2022-11-14T05:02:10;21.15;;;10.93;;
41077;SDS011;26823;42.662;23.352;2022-11-14T05:04:35;31.17;;;12.95;;
41077;SDS011;26823;42.662;23.352;2022-11-14T05:07:01;25.75;;;12.93;;
41077;SDS011;26823;42.662;23.352;2022-11-14T05:09:26;24.80;;;11.50;;
41077;SDS011;26823;42.662;23.352;2022-11-14T05:11:52;21.25;;;10.15;;
41077;SDS011;26823;42.662;23.352;2022-11-14T05:14:17;29.48;;;14.43;;
41077;SDS011;26823;42.662;23.352;2022-11-14T05:16:43;27.75;;;13.88;;
41077;SDS011;26823;42.662;23.352;2022-11-14T05:19:08;21.65;;;12.48;;
41077;SDS011;26823;42.662;23.352;2022-11-14T05:21:33;24.58;;;12.57;;
41077;SDS011;26823;42.662;23.352;2022-11-14T05:23:59;25.05;;;12.30;;
41077;SDS011;26823;42.662;23.352;2022-11-14T05:26:24;25.08;;;12.38;;
41077;SDS011;26823;42.662;23.352;2022-11-14T05:28:50;31.52;;;13.98;;
41077;SDS011;26823;42.662;23.352;2022-11-14T05:31:15;26.75;;;12.30;;
41077;SDS011;26823;42.662;23.352;2022-11-14T05:33:42;34.75;;;11.95;;
41077;SDS011;26823;42.662;23.352;2022-11-14T05:36:09;27.88;;;12.80;;
41077;SDS011;26823;42.662;23.352;2022-11-14T05:38:36;21.27;;;11.30;;
41077;SDS011;26823;42.662;23.352;2022-11-14T05:41:05;19.38;;;9.77;;
41077;SDS011;26823;42.662;23.352;2022-11-14T05:43:32;21.92;;;10.50;;
41077;SDS011;26823;42.662;23.352;2022-11-14T05:45:58;17.45;;;10.13;;
41077;SDS011;26823;42.662;23.352;2022-11-14T05:48:25;25.80;;;11.13;;
41077;SDS011;26823;42.662;23.352;2022-11-14T05:50:57;19.50;;;10.57;;
41077;SDS011;26823;42.662;23.352;2022-11-14T05:53:24;23.10;;;11.23;;
41077;SDS011;26823;42.662;23.352;2022-11-14T05:55:51;18.70;;;11.15;;
41077;SDS011;26823;42.662;23.352;2022-11-14T05:58:17;21.75;;;11.10;;
41077;SDS011;26823;42.662;23.352;2022-11-14T06:00:42;23.35;;;11.93;;
41077;SDS011;26823;42.662;23.352;2022-11-14T06:03:08;18.38;;;9.18;;
41077;SDS011;26823;42.662;23.352;2022-11-14T06:05:34;21.90;;;10.77;;
41077;SDS011;26823;42.662;23.352;2022-11-14T06:08:00;18.55;;;10.13;;
41077;SDS011;26823;42.662;23.352;2022-11-14T06:10:26;25.70;;;10.70;;
41077;SDS011;26823;42.662;23.352;2022-11-14T06:12:51;24.65;;;11.30;;
41077;SDS011;26823;42.662;23.352;2022-11-14T06:15:17;25.50;;;10.85;;
41077;SDS011;26823;42.662;23.352;2022-11-14T06:17:42;25.75;;;12.40;;
41077;SDS011;26823;42.662;23.352;2022-11-14T06:20:08;29.17;;;13.05;;
41077;SDS011;26823;42.662;23.352;2022-11-14T06:22:34;28.48;;;12.32;;
41077;SDS011;26823;42.662;23.352;2022-11-14T06:25:00;25.48;;;11.82;;
41077;SDS011;26823;42.662;23.352;2022-11-14T06:27:26;22.60;;;11.68;;
41077;SDS011;26823;42.662;23.352;2022-11-14T06:29:51;31.80;;;13.10;;
41077;SDS011;26823;42.662;23.352;2022-11-14T06:32:17;22.58;;;12.15;;
41077;SDS011;26823;42.662;23.352;2022-11-14T06:34:42;25.08;;;11.63;;
41077;SDS011;26823;42.662;23.352;2022-11-14T06:37:08;22.58;;;10.82;;
41077;SDS011;26823;42.662;23.352;2022-11-14T06:39:33;22.38;;;11.50;;
41077;SDS011;26823;42.662;23.352;2022-11-14T06:41:58;25.88;;;11.77;;
41077;SDS011;26823;42.662;23.352;2022-11-14T06:44:24;30.13;;;13.45;;
41077;SDS011;26823;42.662;23.352;2022-11-14T06:46:49;24.80;;;11.38;;
41077;SDS011;26823;42.662;23.352;2022-11-14T06:49:14;24.80;;;11.80;;
41077;SDS011;26823;42.662;23.352;2022-11-14T06:51:40;26.40;;;11.70;;
41077;SDS011;26823;42.662;23.352;2022-11-14T06:54:05;22.63;;;11.60;;
41077;SDS011;26823;42.662;23.352;2022-11-14T06:56:31;25.08;;;12.23;;
41077;SDS011;26823;42.662;23.352;2022-11-14T06:58:56;26.08;;;11.45;;
41077;SDS011;26823;42.662;23.352;2022-11-14T07:01:23;28.08;;;11.30;;
41077;SDS011;26823;42.662;23.352;2022-11-14T07:03:52;25.75;;;12.00;;
41077;SDS011;26823;42.662;23.352;2022-11-14T07:06:19;26.63;;;11.10;;
41077;SDS011;26823;42.662;23.352;2022-11-14T07:08:46;22.98;;;10.85;;
41077;SDS011;26823;42.662;23.352;2022-11-14T07:11:13;24.40;;;12.77;;
41077;SDS011;26823;42.662;23.352;2022-11-14T07:13:50;27.67;;;11.98;;
41077;SDS011;26823;42.662;23.352;2022-11-14T07:16:24;27.00;;;11.77;;
41077;SDS011;26823;42.662;23.352;2022-11-14T07:18:53;24.27;;;11.05;;
41077;SDS011;26823;42.662;23.352;2022-11-14T07:21:19;24.92;;;12.57;;
41077;SDS011;26823;42.662;23.352;2022-11-14T07:23:45;22.58;;;11.13;;
41077;SDS011;26823;42.662;23.352;2022-11-14T07:26:10;20.02;;;11.00;;
41077;SDS011;26823;42.662;23.352;2022-11-14T07:28:36;20.10;;;10.55;;
41077;SDS011;26823;42.662;23.352;2022-11-14T07:31:04;25.63;;;11.32;;
41077;SDS011;26823;42.662;23.352;2022-11-14T07:33:31;26.88;;;11.98;;
41077;SDS011;26823;42.662;23.352;2022-11-14T07:35:57;27.77;;;12.50;;
41077;SDS011;26823;42.662;23.352;2022-11-14T07:38:30;27.85;;;12.10;;
41077;SDS011;26823;42.662;23.352;2022-11-14T07:40:57;22.88;;;10.70;;
41077;SDS011;26823;42.662;23.352;2022-11-14T07:43:24;22.13;;;12.30;;
41077;SDS011;26823;42.662;23.352;2022-11-14T07:45:50;28.45;;;13.07;;
41077;SDS011;26823;42.662;23.352;2022-11-14T07:48:15;28.05;;;12.38;;
41077;SDS011;26823;42.662;23.352;2022-11-14T07:50:41;25.30;;;12.18;;
41077;SDS011;26823;42.662;23.352;2022-11-14T07:53:07;23.23;;;11.45;;
41077;SDS011;26823;42.662;23.352;2022-11-14T07:55:36;20.80;;;11.55;;
41077;SDS011;26823;42.662;23.352;2022-11-14T07:58:03;25.08;;;13.27;;
41077;SDS011;26823;42.662;23.352;2022-11-14T08:00:28;26.15;;;13.60;;
41077;SDS011;26823;42.662;23.352;2022-11-14T08:02:54;24.73;;;12.40;;
41077;SDS011;26823;42.662;23.352;2022-11-14T08:05:20;25.00;;;13.35;;
41077;SDS011;26823;42.662;23.352;2022-11-14T08:07:45;24.63;;;12.10;;
41077;SDS011;26823;42.662;23.352;2022-11-14T08:10:11;24.55;;;12.27;;
41077;SDS011;26823;42.662;23.352;2022-11-14T08:12:38;25.70;;;12.05;;
41077;SDS011;26823;42.662;23.352;2022-11-14T08:15:05;19.58;;;10.32;;
41077;SDS011;26823;42.662;23.352;2022-11-14T08:17:32;23.80;;;12.52;;
41077;SDS011;26823;42.662;23.352;2022-11-14T08:19:58;23.08;;;13.50;;
41077;SDS011;26823;42.662;23.352;2022-11-14T08:22:23;26.30;;;13.65;;
41077;SDS011;26823;42.662;23.352;2022-11-14T08:24:49;24.13;;;13.55;;
41077;SDS011;26823;42.662;23.352;2022-11-14T08:27:14;23.33;;;12.85;;
41077;SDS011;26823;42.662;23.352;2022-11-14T08:29:40;24.08;;;12.60;;
41077;SDS011;26823;42.662;23.352;2022-11-14T08:32:05;25.10;;;12.82;;
41077;SDS011;26823;42.662;23.352;2022-11-14T08:34:31;25.27;;;13.63;;
41077;SDS011;26823;42.662;23.352;2022-11-14T08:36:56;27.55;;;13.23;;
41077;SDS011;26823;42.662;23.352;2022-11-14T08:39:22;29.48;;;14.35;;
41077;SDS011;26823;42.662;23.352;2022-11-14T08:41:48;25.85;;;13.88;;
41077;SDS011;26823;42.662;23.352;2022-11-14T08:44:13;22.73;;;13.43;;
41077;SDS011;26823;42.662;23.352;2022-11-14T08:46:39;29.98;;;14.27;;
41077;SDS011;26823;42.662;23.352;2022-11-14T08:49:04;25.80;;;14.48;;
41077;SDS011;26823;42.662;23.352;2022-11-14T08:51:30;26.67;;;14.90;;
41077;SDS011;26823;42.662;23.352;2022-11-14T08:53:55;27.35;;;14.27;;
41077;SDS011;26823;42.662;23.352;2022-11-14T08:56:20;28.10;;;14.40;;
41077;SDS011;26823;42.662;23.352;2022-11-14T08:58:46;29.30;;;15.23;;
41077;SDS011;26823;42.662;23.352;2022-11-14T09:01:11;26.88;;;14.77;;
41077;SDS011;26823;42.662;23.352;2022-11-14T09:03:37;28.95;;;15.88;;
41077;SDS011;26823;42.662;23.352;2022-11-14T09:06:02;25.17;;;14.98;;
41077;SDS011;26823;42.662;23.352;2022-11-14T09:08:28;29.60;;;13.48;;
41077;SDS011;26823;42.662;23.352;2022-11-14T09:10:54;28.02;;;13.57;;
41077;SDS011;26823;42.662;23.352;2022-11-14T09:13:19;28.33;;;15.95;;
41077;SDS011;26823;42.662;23.352;2022-11-14T09:15:45;30.48;;;16.50;;
41077;SDS011;26823;42.662;23.352;2022-11-14T09:18:10;28.73;;;15.95;;
41077;SDS011;26823;42.662;23.352;2022-11-14T09:20:36;29.65;;;15.13;;
41077;SDS011;26823;42.662;23.352;2022-11-14T09:23:02;25.40;;;16.33;;
41077;SDS011;26823;42.662;23.352;2022-11-14T09:25:28;32.45;;;16.38;;
41077;SDS011;26823;42.662;23.352;2022-11-14T09:27:54;31.42;;;15.73;;
41077;SDS011;26823;42.662;23.352;2022-11-14T09:30:20;26.23;;;16.33;;
41077;SDS011;26823;42.662;23.352;2022-11-14T09:32:49;28.52;;;15.18;;
41077;SDS011;26823;42.662;23.352;2022-11-14T09:35:15;26.80;;;15.15;;
41077;SDS011;26823;42.662;23.352;2022-11-14T09:37:41;29.63;;;16.23;;
41077;SDS011;26823;42.662;23.352;2022-11-14T09:40:06;27.00;;;15.25;;
41077;SDS011;26823;42.662;23.352;2022-11-14T09:45:13;39.03;;;17.90;;
41077;SDS011;26823;42.662;23.352;2022-11-14T09:47:45;29.90;;;16.63;;
41077;SDS011;26823;42.662;23.352;2022-11-14T09:50:16;33.30;;;17.23;;
41077;SDS011;26823;42.662;23.352;2022-11-14T09:52:46;29.25;;;17.67;;
41077;SDS011;26823;42.662;23.352;2022-11-14T09:55:19;33.75;;;17.48;;
41077;SDS011;26823;42.662;23.352;2022-11-14T09:57:46;40.38;;;18.08;;
41077;SDS011;26823;42.662;23.352;2022-11-14T10:11:00;32.92;;;16.60;;
41077;SDS011;26823;42.662;23.352;2022-11-14T10:13:50;33.75;;;16.98;;
41077;SDS011;26823;42.662;23.352;2022-11-14T10:19:11;33.65;;;16.25;;
41077;SDS011;26823;42.662;23.352;2022-11-14T10:27:32;28.50;;;15.18;;
41077;SDS011;26823;42.662;23.352;2022-11-14T10:30:15;30.85;;;16.35;;
41077;SDS011;26823;42.662;23.352;2022-11-14T10:35:15;25.00;;;16.13;;
41077;SDS011;26823;42.662;23.352;2022-11-14T10:40:48;22.58;;;14.82;;
41077;SDS011;26823;42.662;23.352;2022-11-14T10:43:28;22.77;;;14.93;;
41077;SDS011;26823;42.662;23.352;2022-11-14T10:48:32;25.08;;;16.65;;
41077;SDS011;26823;42.662;23.352;2022-11-14T10:56:24;22.23;;;15.00;;
41077;SDS011;26823;42.662;23.352;2022-11-14T10:58:50;23.52;;;15.75;;
41077;SDS011;26823;42.662;23.352;2022-11-14T11:06:51;20.42;;;14.90;;
41077;SDS011;26823;42.662;23.352;2022-11-14T11:09:20;24.95;;;16.35;;
41077;SDS011;26823;42.662;23.352;2022-11-14T11:12:06;25.60;;;16.88;;
41077;SDS011;26823;42.662;23.352;2022-11-14T11:14:33;24.77;;;15.18;;
41077;SDS011;26823;42.662;23.352;2022-11-14T11:19:40;28.23;;;17.80;;
41077;SDS011;26823;42.662;23.352;2022-11-14T11:24:52;25.88;;;16.00;;
41077;SDS011;26823;42.662;23.352;2022-11-14T11:32:39;32.30;;;17.98;;
41077;SDS011;26823;42.662;23.352;2022-11-14T11:35:08;27.83;;;17.63;;
41077;SDS011;26823;42.662;23.352;2022-11-14T11:37:43;32.00;;;19.10;;
41077;SDS011;26823;42.662;23.352;2022-11-14T11:40:19;32.90;;;19.00;;
41077;SDS011;26823;42.662;23.352;2022-11-14T11:42:55;34.75;;;19.80;;
41077;SDS011;26823;42.662;23.352;2022-11-14T11:45:21;35.75;;;21.30;;
41077;SDS011;26823;42.662;23.352;2022-11-14T11:48:01;38.80;;;19.98;;
41077;SDS011;26823;42.662;23.352;2022-11-14T11:50:38;31.95;;;19.42;;
41077;SDS011;26823;42.662;23.352;2022-11-14T12:00:55;38.30;;;22.00;;
41077;SDS011;26823;42.662;23.352;2022-11-14T12:03:21;38.67;;;21.30;;
41077;SDS011;26823;42.662;23.352;2022-11-14T12:11:23;31.08;;;20.30;;
41077;SDS011;26823;42.662;23.352;2022-11-14T12:31:55;30.90;;;21.15;;
41077;SDS011;26823;42.662;23.352;2022-11-14T12:34:26;29.83;;;20.40;;
41077;SDS011;26823;42.662;23.352;2022-11-14T12:36:57;28.02;;;20.85;;
41077;SDS011;26823;42.662;23.352;2022-11-14T12:39:24;29.85;;;20.38;;
41077;SDS011;26823;42.662;23.352;2022-11-14T12:42:04;29.50;;;20.70;;
41077;SDS011;26823;42.662;23.352;2022-11-14T12:44:32;29.85;;;21.55;;
41077;SDS011;26823;42.662;23.352;2022-11-14T13:00:58;32.67;;;21.55;;
41077;SDS011;26823;42.662;23.352;2022-11-14T13:14:31;35.58;;;22.25;;
41077;SDS011;26823;42.662;23.352;2022-11-14T13:17:38;36.60;;;23.15;;
41077;SDS011;26823;42.662;23.352;2022-11-14T13:20:24;40.17;;;22.92;;
41077;SDS011;26823;42.662;23.352;2022-11-14T13:28:48;38.55;;;24.25;;
41077;SDS011;26823;42.662;23.352;2022-11-14T13:41:24;44.55;;;25.02;;
41077;SDS011;26823;42.662;23.352;2022-11-14T13:46:47;39.88;;;23.88;;
41077;SDS011;26823;42.662;23.352;2022-11-14T13:52:27;39.20;;;24.55;;
41077;SDS011;26823;42.662;23.352;2022-11-14T13:54:55;42.22;;;25.35;;
41077;SDS011;26823;42.662;23.352;2022-11-14T14:00:12;45.90;;;26.70;;
41077;SDS011;26823;42.662;23.352;2022-11-14T14:05:28;48.50;;;26.63;;
41077;SDS011;26823;42.662;23.352;2022-11-14T14:16:32;54.03;;;28.20;;
41077;SDS011;26823;42.662;23.352;2022-11-14T14:32:34;57.88;;;28.23;;
41077;SDS011;26823;42.662;23.352;2022-11-14T14:35:17;64.38;;;29.70;;
41077;SDS011;26823;42.662;23.352;2022-11-14T14:37:52;66.82;;;29.48;;
41077;SDS011;26823;42.662;23.352;2022-11-14T14:40:31;65.35;;;28.95;;
41077;SDS011;26823;42.662;23.352;2022-11-14T14:42:59;58.53;;;28.13;;
41077;SDS011;26823;42.662;23.352;2022-11-14T14:45:27;61.45;;;28.35;;
41077;SDS011;26823;42.662;23.352;2022-11-14T14:50:41;61.00;;;27.20;;
41077;SDS011;26823;42.662;23.352;2022-11-14T14:53:30;52.72;;;27.27;;
41077;SDS011;26823;42.662;23.352;2022-11-14T14:55:57;55.67;;;27.38;;
41077;SDS011;26823;42.662;23.352;2022-11-14T14:58:26;56.60;;;27.65;;
41077;SDS011;26823;42.662;23.352;2022-11-14T15:03:19;59.75;;;28.85;;
41077;SDS011;26823;42.662;23.352;2022-11-14T15:05:46;58.17;;;29.02;;
41077;SDS011;26823;42.662;23.352;2022-11-14T15:08:15;56.38;;;28.10;;
41077;SDS011;26823;42.662;23.352;2022-11-14T15:10:41;56.78;;;28.17;;
41077;SDS011;26823;42.662;23.352;2022-11-14T15:13:13;64.97;;;29.48;;
41077;SDS011;26823;42.662;23.352;2022-11-14T15:15:41;52.72;;;26.77;;
41077;SDS011;26823;42.662;23.352;2022-11-14T15:18:07;52.55;;;27.52;;
41077;SDS011;26823;42.662;23.352;2022-11-14T15:20:44;62.40;;;28.95;;
41077;SDS011;26823;42.662;23.352;2022-11-14T15:23:34;58.55;;;27.77;;
41077;SDS011;26823;42.662;23.352;2022-11-14T15:26:02;56.70;;;27.27;;
41077;SDS011;26823;42.662;23.352;2022-11-14T15:28:34;71.38;;;31.88;;
41077;SDS011;26823;42.662;23.352;2022-11-14T15:31:03;55.15;;;28.02;;
41077;SDS011;26823;42.662;23.352;2022-11-14T15:33:30;60.08;;;28.27;;
41077;SDS011;26823;42.662;23.352;2022-11-14T15:36:07;61.88;;;29.30;;
41077;SDS011;26823;42.662;23.352;2022-11-14T15:38:34;55.83;;;26.92;;
41077;SDS011;26823;42.662;23.352;2022-11-14T15:41:14;61.08;;;29.05;;
41077;SDS011;26823;42.662;23.352;2022-11-14T15:49:06;53.78;;;28.50;;
41077;SDS011;26823;42.662;23.352;2022-11-14T15:56:47;67.60;;;26.73;;
41077;SDS011;26823;42.662;23.352;2022-11-14T15:59:12;65.75;;;28.85;;
41077;SDS011;26823;42.662;23.352;2022-11-14T16:01:38;61.42;;;29.35;;
41077;SDS011;26823;42.662;23.352;2022-11-14T16:04:03;53.90;;;26.23;;
41077;SDS011;26823;42.662;23.352;2022-11-14T16:06:29;55.00;;;27.55;;
41077;SDS011;26823;42.662;23.352;2022-11-14T16:08:56;55.15;;;26.83;;
41077;SDS011;26823;42.662;23.352;2022-11-14T16:11:21;58.65;;;27.77;;
41077;SDS011;26823;42.662;23.352;2022-11-14T16:13:47;61.72;;;28.35;;
41077;SDS011;26823;42.662;23.352;2022-11-14T16:16:12;56.42;;;25.73;;
41077;SDS011;26823;42.662;23.352;2022-11-14T16:18:38;54.05;;;27.45;;
41077;SDS011;26823;42.662;23.352;2022-11-14T16:21:03;59.72;;;29.27;;
41077;SDS011;26823;42.662;23.352;2022-11-14T16:23:29;56.85;;;27.17;;
41077;SDS011;26823;42.662;23.352;2022-11-14T16:25:54;57.60;;;26.08;;
41077;SDS011;26823;42.662;23.352;2022-11-14T16:28:19;58.15;;;26.02;;
41077;SDS011;26823;42.662;23.352;2022-11-14T16:30:45;55.55;;;27.98;;
41077;SDS011;26823;42.662;23.352;2022-11-14T16:33:10;53.75;;;26.38;;
41077;SDS011;26823;42.662;23.352;2022-11-14T16:35:36;59.65;;;26.23;;
41077;SDS011;26823;42.662;23.352;2022-11-14T16:38:01;63.67;;;27.65;;
41077;SDS011;26823;42.662;23.352;2022-11-14T16:40:27;59.97;;;28.92;;
41077;SDS011;26823;42.662;23.352;2022-11-14T16:42:53;56.65;;;28.63;;
41077;SDS011;26823;42.662;23.352;2022-11-14T16:45:19;61.75;;;27.77;;
41077;SDS011;26823;42.662;23.352;2022-11-14T16:47:45;58.58;;;28.00;;
41077;SDS011;26823;42.662;23.352;2022-11-14T16:50:11;56.17;;;27.25;;
41077;SDS011;26823;42.662;23.352;2022-11-14T16:52:37;55.28;;;27.48;;
41077;SDS011;26823;42.662;23.352;2022-11-14T16:55:03;50.63;;;27.35;;
41077;SDS011;26823;42.662;23.352;2022-11-14T16:57:30;60.28;;;29.42;;
41077;SDS011;26823;42.662;23.352;2022-11-14T16:59:55;57.35;;;28.48;;
41077;SDS011;26823;42.662;23.352;2022-11-14T17:02:22;56.75;;;26.98;;
41077;SDS011;26823;42.662;23.352;2022-11-14T17:04:48;56.70;;;27.33;;
41077;SDS011;26823;42.662;23.352;2022-11-14T17:07:14;64.55;;;29.85;;